Time;durP1;ratioP1;P1;durP2;ratioP2;P2;SDS_P1;SDS_P2;PMS_P1;PMS_P2;Temp;Humidity;BMP_temperature;BMP_pressure;BME280_temperature;BME280_humidity;BME280_pressure;Samples;Min_cycle;Max_cycle;Signal;HPM_P1;HPM_P2
2021/11/13 00:00:59;;;;;;;63.77;31.80;;;;;;;19.08;47.18;100733.06;4976864;28;20630;-73
2021/11/13 00:03:24;;;;;;;58.20;30.53;;;;;;;16.09;52.37;100736.50;4958778;28;20178;-74
2021/11/13 00:05:49;;;;;;;59.20;32.00;;;;;;;17.57;49.36;100738.91;4974797;28;20297;-74
2021/11/13 00:08:16;;;;;;;61.87;32.27;;;;;;;18.49;48.30;100741.88;4975489;28;20198;-74
2021/11/13 00:10:41;;;;;;;59.53;33.33;;;;;;;17.91;48.97;100728.88;4976375;28;20174;-74
2021/11/13 00:13:08;;;;;;;66.33;33.97;;;;;;;18.12;48.67;100715.34;4976674;28;20326;-74
2021/11/13 00:15:34;;;;;;;58.73;30.53;;;;;;;16.31;52.14;100722.22;4974676;28;20682;-74
2021/11/13 00:17:59;;;;;;;68.17;32.27;;;;;;;17.93;48.61;100707.13;4975169;28;20272;-74
2021/11/13 00:20:27;;;;;;;64.63;32.13;;;;;;;17.62;48.89;100709.69;4974794;28;20195;-73
2021/11/13 00:22:53;;;;;;;66.10;33.33;;;;;;;16.77;50.87;100720.34;4975201;28;20166;-74
2021/11/13 00:25:19;;;;;;;58.77;30.07;;;;;;;16.56;51.21;100717.47;4975016;28;20173;-74
2021/11/13 00:27:44;;;;;;;57.73;31.07;;;;;;;17.14;49.80;100710.09;4974396;28;20202;-74
2021/11/13 00:30:10;;;;;;;64.77;32.97;;;;;;;18.33;48.77;100727.00;4977286;28;20178;-74
2021/11/13 00:32:36;;;;;;;61.33;31.93;;;;;;;17.79;49.10;100719.09;4958947;28;20260;-73
2021/11/13 00:35:02;;;;;;;69.53;33.87;;;;;;;17.56;49.49;100726.41;4958393;28;20182;-73
2021/11/13 00:37:28;;;;;;;60.73;31.60;;;;;;;18.35;48.13;100719.63;4976050;28;20206;-74
2021/11/13 00:39:53;;;;;;;57.10;29.80;;;;;;;16.27;50.62;100714.38;4976579;28;20189;-73
2021/11/13 00:42:18;;;;;;;64.37;32.73;;;;;;;17.49;48.55;100704.50;4975903;28;20273;-73
2021/11/13 00:44:43;;;;;;;58.27;29.50;;;;;;;17.78;48.65;100712.84;4976981;28;20179;-73
2021/11/13 00:47:09;;;;;;;62.50;32.80;;;;;;;20.39;44.64;100705.41;4975572;28;20680;-74
2021/11/13 00:49:35;;;;;;;62.87;31.50;;;;;;;20.50;44.40;100712.56;4976009;28;20180;-76
2021/11/13 00:52:01;;;;;;;60.17;31.87;;;;;;;21.10;43.51;100731.97;4974421;28;20639;-74
2021/11/13 00:54:26;;;;;;;62.33;32.57;;;;;;;18.35;48.25;100732.28;4975240;28;20230;-74
2021/11/13 00:56:51;;;;;;;65.63;33.37;;;;;;;18.94;46.45;100710.78;4973747;28;20269;-75
2021/11/13 00:59:17;;;;;;;63.37;31.47;;;;;;;16.96;50.18;100725.06;4974462;28;20170;-74
2021/11/13 01:01:42;;;;;;;61.37;31.70;;;;;;;18.43;47.75;100722.50;4957902;28;20539;-74
2021/11/13 01:04:08;;;;;;;61.97;32.73;;;;;;;19.13;46.79;100731.66;4975199;28;20162;-74
2021/11/13 01:06:33;;;;;;;54.93;30.63;;;;;;;16.42;50.89;100714.16;4974209;28;20244;-74
2021/11/13 01:08:59;;;;;;;63.17;32.67;;;;;;;18.30;48.13;100724.59;4957533;28;20182;-75
2021/11/13 01:11:24;;;;;;;57.80;30.57;;;;;;;19.80;45.43;100714.66;4974222;28;20179;-74
2021/11/13 01:13:50;;;;;;;62.23;30.73;;;;;;;16.84;50.09;100705.38;4957824;28;20206;-74
2021/11/13 01:16:16;;;;;;;58.67;29.27;;;;;;;17.02;51.39;100716.47;4974282;28;20273;-75
2021/11/13 01:18:43;;;;;;;61.23;32.13;;;;;;;17.19;50.88;100709.72;4974333;28;20176;-76
2021/11/13 01:21:08;;;;;;;62.70;33.20;;;;;;;17.40;49.41;100704.38;4958141;28;20228;-73
2021/11/13 01:23:33;;;;;;;53.73;28.47;;;;;;;15.79;52.10;100697.50;4975690;28;20640;-73
2021/11/13 01:25:59;;;;;;;68.93;33.50;;;;;;;18.05;48.39;100689.88;4975490;28;20178;-74
2021/11/13 01:28:24;;;;;;;68.57;32.30;;;;;;;17.30;48.66;100688.09;4957750;28;20202;-73
2021/11/13 01:30:50;;;;;;;63.90;32.33;;;;;;;17.05;49.95;100696.50;4991276;28;20201;-74
2021/11/13 01:33:15;;;;;;;68.87;34.03;;;;;;;18.41;47.60;100702.88;4993332;28;20206;-75
2021/11/13 01:35:40;;;;;;;66.43;33.57;;;;;;;18.65;46.63;100677.41;4984929;28;20174;-73
2021/11/13 01:38:06;;;;;;;67.27;35.13;;;;;;;18.77;46.28;100676.31;4959074;28;20200;-74
2021/11/13 01:40:31;;;;;;;63.80;33.00;;;;;;;17.90;48.15;100691.19;4977607;28;20179;-75
2021/11/13 01:42:58;;;;;;;64.70;33.50;;;;;;;18.06;48.51;100686.19;4979626;28;20174;-74
2021/11/13 01:45:25;;;;;;;60.97;31.93;;;;;;;16.97;49.65;100683.66;4974221;28;20549;-75
2021/11/13 01:47:50;;;;;;;63.57;33.83;;;;;;;17.70;48.99;100671.28;4974452;28;20747;-74
2021/11/13 01:50:21;;;;;;;66.20;34.37;;;;;;;18.51;47.27;100665.06;4974518;28;20205;-75
2021/11/13 01:52:48;;;;;;;67.77;35.73;;;;;;;18.88;46.98;100676.19;4974172;28;20641;-74
2021/11/13 01:55:15;;;;;;;70.70;33.90;;;;;;;18.16;48.11;100672.72;4975152;28;20184;-74
2021/11/13 01:57:48;;;;;;;64.43;32.83;;;;;;;18.40;47.31;100655.22;4974405;28;20206;-74
2021/11/13 02:00:27;;;;;;;64.13;33.07;;;;;;;18.91;46.78;100651.56;4974230;28;20239;-74
2021/11/13 02:02:53;;;;;;;67.60;33.37;;;;;;;19.95;44.59;100631.97;4974058;28;20647;-74
2021/11/13 02:05:18;;;;;;;69.13;36.13;;;;;;;18.71;46.48;100639.03;4974911;28;20182;-74
2021/11/13 02:07:43;;;;;;;71.17;34.80;;;;;;;20.17;44.49;100635.34;4975089;28;20198;-75
2021/11/13 02:10:09;;;;;;;68.97;35.63;;;;;;;18.48;47.67;100632.06;4978743;28;20178;-75
2021/11/13 02:12:35;;;;;;;70.80;35.57;;;;;;;19.08;46.81;100625.72;4977301;28;20244;-74
2021/11/13 02:15:01;;;;;;;70.57;33.90;;;;;;;20.79;43.72;100618.38;4977817;28;20644;-76
2021/11/13 02:17:27;;;;;;;70.47;35.90;;;;;;;19.41;46.08;100607.38;4977017;28;20190;-74
2021/11/13 02:19:52;;;;;;;63.50;32.37;;;;;;;17.67;48.80;100596.00;4960955;28;20178;-74
2021/11/13 02:22:17;;;;;;;68.13;33.20;;;;;;;20.04;45.41;100618.53;4979604;28;20181;-74
2021/11/13 02:24:46;;;;;;;65.63;32.90;;;;;;;18.80;47.31;100615.69;4977427;28;20167;-75
2021/11/13 02:27:11;;;;;;;67.47;34.57;;;;;;;17.46;48.70;100606.72;4977291;28;20209;-75
2021/11/13 02:29:37;;;;;;;66.00;33.20;;;;;;;18.08;47.65;100614.84;4961062;28;20221;-74
2021/11/13 02:32:03;;;;;;;66.03;32.27;;;;;;;16.62;50.51;100623.66;4977118;28;20640;-75
2021/11/13 02:34:28;;;;;;;64.43;33.53;;;;;;;17.52;49.28;100614.31;4978804;28;20201;-74
2021/11/13 02:36:53;;;;;;;65.10;33.33;;;;;;;17.93;47.96;100599.13;4978086;28;20684;-74
2021/11/13 02:39:19;;;;;;;72.87;35.27;;;;;;;17.67;48.79;100602.25;4977067;28;20174;-75
2021/11/13 02:41:47;;;;;;;69.43;34.50;;;;;;;17.03;50.02;100596.88;4977141;28;20595;-74
2021/11/13 02:44:13;;;;;;;65.70;33.83;;;;;;;18.71;47.78;100620.09;4960680;28;20179;-74
2021/11/13 02:46:39;;;;;;;64.97;32.87;;;;;;;17.22;48.66;100585.41;4976119;28;20731;-74
2021/11/13 02:49:05;;;;;;;67.67;34.93;;;;;;;18.09;48.28;100604.88;4960534;28;20185;-74
2021/11/13 02:51:31;;;;;;;61.37;28.33;;;;;;;16.07;51.72;100577.81;4977177;28;20178;-74
2021/11/13 02:53:56;;;;;;;70.27;33.03;;;;;;;17.72;48.63;100574.84;4977936;28;20208;-75
2021/11/13 02:56:22;;;;;;;65.17;33.57;;;;;;;17.42;48.77;100578.31;4976499;28;20182;-74
2021/11/13 02:58:48;;;;;;;68.60;33.93;;;;;;;18.12;48.17;100588.41;4976457;28;20656;-75
2021/11/13 03:01:18;;;;;;;70.60;33.20;;;;;;;19.58;46.07;100599.38;4977040;28;20205;-75
2021/11/13 03:03:47;;;;;;;61.50;33.60;;;;;;;19.49;45.57;100581.28;4976335;28;20583;-73
2021/11/13 03:06:13;;;;;;;71.03;34.40;;;;;;;19.95;44.78;100576.94;4977318;28;20182;-76
2021/11/13 03:08:40;;;;;;;67.77;33.47;;;;;;;19.27;45.83;100595.94;4977870;28;20544;-74
2021/11/13 03:11:09;;;;;;;66.63;34.47;;;;;;;18.36;47.21;100583.53;4976487;28;20643;-74
2021/11/13 03:13:36;;;;;;;73.77;35.20;;;;;;;18.48;47.86;100588.84;4975926;28;20631;-74
2021/11/13 03:16:03;;;;;;;67.13;34.20;;;;;;;19.13;46.86;100573.91;4976356;28;20659;-74
2021/11/13 03:18:29;;;;;;;71.63;35.03;;;;;;;17.91;48.43;100582.22;4976016;28;20242;-73
2021/11/13 03:20:55;;;;;;;65.60;34.30;;;;;;;19.08;45.95;100562.66;4975202;28;20210;-74
2021/11/13 03:23:21;;;;;;;66.53;33.73;;;;;;;18.63;47.05;100568.59;4977607;28;20182;-74
2021/11/13 03:25:53;;;;;;;74.90;34.57;;;;;;;16.84;50.37;100592.16;4975722;28;20181;-74
2021/11/13 03:28:20;;;;;;;70.07;35.80;;;;;;;18.06;48.59;100589.81;4975411;28;20209;-75
2021/11/13 03:30:45;;;;;;;72.50;35.17;;;;;;;18.06;47.11;100570.91;4959604;28;20221;-75
2021/11/13 03:33:10;;;;;;;60.00;30.77;;;;;;;15.84;50.89;100568.00;4976617;28;20229;-74
2021/11/13 03:35:36;;;;;;;55.73;28.13;;;;;;;15.54;51.61;100568.50;4976669;28;20636;-73
2021/11/13 03:38:08;;;;;;;70.13;34.10;;;;;;;17.37;48.50;100572.44;4975537;28;20209;-74
2021/11/13 03:40:34;;;;;;;65.00;32.40;;;;;;;17.52;49.01;100595.44;4975070;28;20209;-73
2021/11/13 03:42:59;;;;;;;60.90;32.70;;;;;;;16.65;50.17;100591.06;4958739;28;20221;-74
2021/11/13 03:45:25;;;;;;;62.70;32.07;;;;;;;17.12;48.10;100571.84;4975269;28;20210;-74
2021/11/13 03:47:50;;;;;;;63.13;33.40;;;;;;;17.06;48.87;100587.66;4974915;28;20206;-73
2021/11/13 03:50:16;;;;;;;64.17;33.27;;;;;;;16.50;50.48;100596.75;4974853;28;20221;-73
2021/11/13 03:52:41;;;;;;;66.30;34.50;;;;;;;17.10;48.96;100584.63;4974839;28;20179;-73
2021/11/13 03:55:07;;;;;;;63.90;33.83;;;;;;;16.25;49.88;100611.31;4976396;28;20182;-73
2021/11/13 03:57:32;;;;;;;61.67;33.00;;;;;;;18.94;45.81;100609.88;4958441;28;20532;-73
2021/11/13 03:59:58;;;;;;;62.00;33.53;;;;;;;17.11;49.41;100616.00;4976089;28;20233;-72
2021/11/13 04:02:23;;;;;;;66.90;32.70;;;;;;;17.59;47.91;100601.16;4975877;28;20181;-74
2021/11/13 04:04:49;;;;;;;61.47;32.77;;;;;;;18.47;46.87;100617.69;4975951;28;20188;-74
2021/11/13 04:07:14;;;;;;;57.50;32.27;;;;;;;18.90;46.14;100633.66;4975063;28;20217;-74
2021/11/13 04:09:39;;;;;;;63.97;32.83;;;;;;;18.37;45.94;100620.38;4974626;28;20186;-74
2021/11/13 04:12:06;;;;;;;57.90;31.77;;;;;;;18.50;46.93;100651.72;4974416;28;20213;-73
2021/11/13 04:14:33;;;;;;;59.60;31.23;;;;;;;18.83;46.47;100664.94;4975973;28;20198;-74
2021/11/13 04:16:58;;;;;;;55.57;29.07;;;;;;;16.94;48.59;100634.53;4975411;28;20202;-73
2021/11/13 04:19:23;;;;;;;62.10;32.97;;;;;;;18.36;45.51;100639.44;4974384;28;20485;-72
2021/11/13 04:21:48;;;;;;;54.80;29.17;;;;;;;16.37;49.70;100639.13;4974149;28;20541;-73
2021/11/13 04:24:14;;;;;;;52.30;30.20;;;;;;;15.94;51.05;100658.63;4975364;28;20210;-74
2021/11/13 04:26:39;;;;;;;56.40;29.97;;;;;;;16.50;49.69;100629.06;4973824;28;20198;-73
2021/11/13 04:29:04;;;;;;;62.60;30.67;;;;;;;16.16;50.28;100640.81;4975890;28;20165;-73
2021/11/13 04:31:30;;;;;;;59.33;29.63;;;;;;;17.00;48.18;100637.56;4973916;28;20190;-74
2021/11/13 04:34:00;;;;;;;58.80;30.70;;;;;;;16.68;48.99;100655.50;4957949;28;20213;-76
2021/11/13 04:36:29;;;;;;;58.37;31.43;;;;;;;18.13;47.01;100665.75;4974039;28;20184;-74
2021/11/13 04:38:54;;;;;;;55.27;29.20;;;;;;;15.61;50.96;100658.59;4974516;28;20281;-74
2021/11/13 04:41:19;;;;;;;55.70;29.93;;;;;;;16.52;49.08;100637.03;4973820;28;20186;-74
2021/11/13 04:43:45;;;;;;;59.40;31.83;;;;;;;18.54;46.02;100659.41;4973838;28;20184;-74
2021/11/13 04:46:10;;;;;;;55.93;29.83;;;;;;;18.90;45.09;100660.69;4973937;28;20197;-74
2021/11/13 04:48:35;;;;;;;53.90;30.73;;;;;;;18.15;47.52;100676.41;4973738;28;20734;-74
2021/11/13 04:51:01;;;;;;;54.10;30.00;;;;;;;19.79;44.09;100658.78;4973670;28;20679;-75
2021/11/13 04:53:27;;;;;;;51.90;28.00;;;;;;;17.37;47.67;100664.16;4974116;28;20201;-75
2021/11/13 04:55:53;;;;;;;60.77;32.80;;;;;;;17.43;48.08;100674.44;4957379;28;20210;-74
2021/11/13 04:58:18;;;;;;;53.70;29.67;;;;;;;19.01;45.22;100662.44;4973463;28;20198;-74
2021/11/13 05:00:44;;;;;;;53.27;29.63;;;;;;;15.97;49.48;100648.59;4973472;28;20576;-74
2021/11/13 05:03:09;;;;;;;49.87;26.47;;;;;;;16.37;48.53;100631.03;4974879;28;20181;-73
2021/11/13 05:05:34;;;;;;;51.70;29.63;;;;;;;16.38;48.76;100634.59;4974660;28;20636;-74
2021/11/13 05:07:59;;;;;;;53.63;29.00;;;;;;;17.90;47.30;100658.81;4973788;28;20202;-73
2021/11/13 05:10:25;;;;;;;57.07;30.07;;;;;;;17.37;46.79;100646.16;4957549;28;20174;-74
2021/11/13 05:12:50;;;;;;;54.30;29.47;;;;;;;18.86;45.60;100664.66;4973988;28;20205;-74
2021/11/13 05:15:16;;;;;;;49.50;26.73;;;;;;;15.72;50.48;100668.50;4973916;28;20184;-73
2021/11/13 05:17:42;;;;;;;53.33;29.37;;;;;;;17.92;47.35;100673.88;4973695;28;20237;-74
2021/11/13 05:20:11;;;;;;;58.07;28.80;;;;;;;16.61;48.65;100681.22;4973989;28;20242;-74
2021/11/13 05:22:37;;;;;;;58.37;28.83;;;;;;;17.60;47.63;100671.19;4974020;28;20228;-74
2021/11/13 05:25:04;;;;;;;52.87;29.63;;;;;;;16.83;48.54;100668.63;4973938;28;20185;-75
2021/11/13 05:27:29;;;;;;;48.13;27.57;;;;;;;16.27;49.13;100665.91;4974641;28;20316;-74
2021/11/13 05:29:55;;;;;;;53.67;29.70;;;;;;;17.72;46.61;100664.78;4973842;28;20182;-74
2021/11/13 05:32:20;;;;;;;52.80;28.20;;;;;;;19.93;43.87;100677.28;4975094;28;20178;-74
2021/11/13 05:34:45;;;;;;;56.77;29.20;;;;;;;18.31;45.89;100656.06;4973311;28;20206;-73
2021/11/13 05:37:11;;;;;;;49.70;28.33;;;;;;;17.18;47.78;100673.81;4973697;28;20200;-73
2021/11/13 05:39:36;;;;;;;52.07;28.77;;;;;;;17.70;47.69;100668.59;4973482;28;20193;-73
2021/11/13 05:42:03;;;;;;;52.60;29.00;;;;;;;19.19;45.01;100676.13;4974319;28;20192;-73
2021/11/13 05:44:28;;;;;;;49.97;28.30;;;;;;;17.52;47.28;100660.19;4977267;28;20170;-73
2021/11/13 05:46:54;;;;;;;50.53;28.37;;;;;;;18.09;46.23;100648.97;4977166;28;20572;-73
2021/11/13 05:49:20;;;;;;;55.93;29.97;;;;;;;17.99;46.34;100656.16;4977085;28;20640;-74
2021/11/13 05:51:45;;;;;;;50.60;28.03;;;;;;;16.02;48.70;100654.53;4977223;28;20265;-73
2021/11/13 05:54:11;;;;;;;49.83;29.43;;;;;;;17.38;47.30;100668.56;4960833;28;20216;-74
2021/11/13 05:56:36;;;;;;;48.40;28.70;;;;;;;19.72;43.88;100670.34;4978423;28;20200;-74
2021/11/13 05:59:01;;;;;;;51.33;27.90;;;;;;;15.97;49.42;100680.91;4977085;28;20185;-74
2021/11/13 06:01:27;;;;;;;53.17;30.07;;;;;;;17.61;47.23;100688.25;4977000;28;20185;-73
2021/11/13 06:03:52;;;;;;;48.87;27.47;;;;;;;18.74;44.66;100674.75;4978317;28;20177;-73
2021/11/13 06:06:17;;;;;;;52.50;28.10;;;;;;;19.17;43.64;100667.28;4960804;28;20197;-74
2021/11/13 06:08:43;;;;;;;50.47;27.67;;;;;;;19.54;43.60;100654.81;4978068;28;20178;-74
2021/11/13 06:11:09;;;;;;;50.13;28.50;;;;;;;19.77;43.31;100668.06;4976717;28;20264;-74
2021/11/13 06:13:34;;;;;;;53.47;28.43;;;;;;;17.30;45.94;100668.38;4976709;28;20289;-74
2021/11/13 06:16:02;;;;;;;51.43;29.20;;;;;;;17.39;46.30;100668.44;4976925;28;20217;-74
2021/11/13 06:18:28;;;;;;;48.83;29.00;;;;;;;19.57;44.30;100672.63;4961007;28;20194;-73
2021/11/13 06:20:53;;;;;;;49.70;28.33;;;;;;;17.87;46.34;100659.94;4977269;28;20316;-74
2021/11/13 06:23:18;;;;;;;60.83;30.17;;;;;;;19.00;44.64;100661.59;4960765;28;20549;-75
2021/11/13 06:25:44;;;;;;;50.40;28.00;;;;;;;18.28;46.00;100660.88;4976536;28;20178;-74
2021/11/13 06:28:09;;;;;;;51.33;28.57;;;;;;;19.25;44.25;100643.09;4976612;28;20210;-74
2021/11/13 06:30:34;;;;;;;53.30;29.57;;;;;;;17.80;47.38;100664.13;4976789;28;20651;-74
2021/11/13 06:33:00;;;;;;;49.93;28.27;;;;;;;16.08;49.29;100662.13;4978696;28;20198;-74
2021/11/13 06:35:25;;;;;;;48.90;28.27;;;;;;;18.11;46.40;100652.38;4976438;28;20206;-73
2021/11/13 06:37:50;;;;;;;56.03;30.60;;;;;;;17.83;45.68;100665.69;4976767;28;20643;-73
2021/11/13 06:40:18;;;;;;;55.90;28.87;;;;;;;16.91;48.33;100684.16;4976341;28;20182;-73
2021/11/13 06:42:43;;;;;;;55.63;30.33;;;;;;;18.23;45.91;100669.38;4976654;28;20181;-73
2021/11/13 06:45:10;;;;;;;49.47;27.93;;;;;;;17.49;47.13;100671.25;4977926;28;20241;-74
2021/11/13 06:47:36;;;;;;;54.27;29.37;;;;;;;18.73;46.19;100680.28;4976435;28;20559;-74
2021/11/13 06:50:03;;;;;;;52.73;29.23;;;;;;;17.84;45.87;100645.81;4960504;28;20229;-74
2021/11/13 06:52:28;;;;;;;54.17;27.87;;;;;;;16.71;48.34;100671.44;4979682;28;20213;-74
2021/11/13 06:54:54;;;;;;;49.03;28.13;;;;;;;16.11;49.43;100680.72;4978293;28;20245;-74
2021/11/13 06:57:19;;;;;;;56.43;29.03;;;;;;;17.07;47.79;100667.56;4977886;28;20202;-74
2021/11/13 06:59:44;;;;;;;55.23;29.17;;;;;;;17.67;47.72;100690.44;4976354;28;20173;-74
2021/11/13 07:02:10;;;;;;;51.20;29.87;;;;;;;17.57;47.12;100695.75;4977482;28;20185;-73
2021/11/13 07:04:35;;;;;;;57.03;30.17;;;;;;;18.35;46.24;100698.00;4977404;28;20178;-74
2021/11/13 07:07:00;;;;;;;55.00;29.33;;;;;;;18.52;45.40;100692.97;4977112;28;20206;-73
2021/11/13 07:09:26;;;;;;;52.77;27.67;;;;;;;16.79;47.45;100679.78;4977295;28;20663;-73
2021/11/13 07:11:51;;;;;;;53.90;27.97;;;;;;;17.32;47.94;100696.94;4975827;28;20182;-75
2021/11/13 07:14:16;;;;;;;56.97;30.33;;;;;;;18.32;45.96;100697.44;4977332;28;20200;-74
2021/11/13 07:16:42;;;;;;;57.27;30.60;;;;;;;17.63;47.60;100711.41;4959657;28;20205;-73
2021/11/13 07:19:09;;;;;;;55.90;28.93;;;;;;;18.14;46.54;100694.47;4975709;28;20640;-75
2021/11/13 07:21:34;;;;;;;55.47;29.97;;;;;;;19.12;44.23;100694.78;4976808;28;20590;-75
2021/11/13 07:24:00;;;;;;;49.90;29.10;;;;;;;19.05;44.61;100694.47;4977009;28;20267;-75
2021/11/13 07:26:25;;;;;;;60.80;28.73;;;;;;;18.45;45.30;100698.06;4976557;28;20197;-73
2021/11/13 07:28:52;;;;;;;53.63;27.67;;;;;;;18.32;45.42;100702.84;4959586;28;20198;-74
2021/11/13 07:31:18;;;;;;;50.07;28.30;;;;;;;18.90;45.25;100706.66;4959591;28;20553;-74
2021/11/13 07:33:49;;;;;;;51.17;27.73;;;;;;;16.76;48.89;100698.91;4976487;28;20198;-73
2021/11/13 07:36:15;;;;;;;55.13;28.83;;;;;;;15.84;50.25;100705.22;4959421;28;20233;-74
2021/11/13 07:38:40;;;;;;;54.13;29.20;;;;;;;18.25;46.01;100690.84;4975458;28;20186;-74
2021/11/13 07:41:07;;;;;;;53.80;28.10;;;;;;;17.30;46.79;100704.28;4976682;28;20548;-74
2021/11/13 07:43:32;;;;;;;52.00;28.07;;;;;;;19.05;45.15;100710.69;4975293;28;20643;-74
2021/11/13 07:45:58;;;;;;;57.13;27.40;;;;;;;17.56;46.45;100687.78;4959370;28;20326;-75
2021/11/13 07:48:23;;;;;;;47.43;27.70;;;;;;;19.19;43.88;100700.47;4975109;28;20568;-74
2021/11/13 07:50:49;;;;;;;56.30;28.23;;;;;;;18.55;44.66;100695.38;4976321;28;20186;-74
2021/11/13 07:53:15;;;;;;;49.90;28.23;;;;;;;18.25;46.77;100718.72;4976279;28;20253;-74
2021/11/13 07:55:40;;;;;;;52.57;29.00;;;;;;;16.83;48.08;100694.72;4976129;28;20181;-73
2021/11/13 07:58:07;;;;;;;50.83;28.43;;;;;;;17.76;47.40;100705.84;4974767;28;20198;-73
2021/11/13 08:00:33;;;;;;;48.90;27.47;;;;;;;17.23;48.14;100691.44;4974874;28;20583;-74
2021/11/13 08:02:58;;;;;;;47.07;27.57;;;;;;;17.19;47.85;100688.16;4976402;28;20637;-73
2021/11/13 08:05:23;;;;;;;56.53;27.00;;;;;;;15.97;48.88;100688.97;4974388;28;20209;-73
2021/11/13 08:07:50;;;;;;;54.60;28.17;;;;;;;16.01;51.14;100701.25;4976989;28;20198;-75
2021/11/13 08:10:16;;;;;;;50.97;27.90;;;;;;;18.16;46.62;100691.63;4959492;28;20183;-75
2021/11/13 08:12:41;;;;;;;55.30;29.87;;;;;;;17.28;47.88;100708.09;4976901;28;20564;-73
2021/11/13 08:15:08;;;;;;;51.00;28.13;;;;;;;16.83;49.62;100716.28;4975213;28;20181;-73
2021/11/13 08:17:34;;;;;;;50.47;27.80;;;;;;;17.13;47.16;100705.69;4976212;28;20201;-74
2021/11/13 08:19:59;;;;;;;52.37;27.93;;;;;;;16.15;50.29;100699.19;4975038;28;20617;-73
2021/11/13 08:22:25;;;;;;;51.70;26.63;;;;;;;16.54;48.96;100697.03;4974989;28;20190;-74
2021/11/13 08:24:51;;;;;;;53.43;27.97;;;;;;;17.87;47.52;100710.38;4976480;28;20636;-74
2021/11/13 08:27:16;;;;;;;51.30;26.53;;;;;;;16.28;48.96;100688.31;4959152;28;20660;-74
2021/11/13 08:29:41;;;;;;;53.60;29.00;;;;;;;17.17;47.18;100682.88;4975053;28;20185;-74
2021/11/13 08:32:07;;;;;;;48.73;26.10;;;;;;;16.04;49.31;100695.63;4976008;28;20182;-76
2021/11/13 08:34:33;;;;;;;55.07;29.43;;;;;;;17.02;48.54;100705.69;4976775;28;20190;-73
2021/11/13 08:36:59;;;;;;;53.70;27.80;;;;;;;17.37;47.89;100704.63;4976904;28;20209;-75
2021/11/13 08:39:25;;;;;;;53.37;29.43;;;;;;;17.55;46.81;100697.72;4976308;28;20181;-74
2021/11/13 08:41:50;;;;;;;57.90;29.87;;;;;;;16.46;49.00;100708.41;4977120;28;20637;-74
2021/11/13 08:44:15;;;;;;;55.67;29.73;;;;;;;18.04;46.44;100713.31;4975307;28;20257;-74
2021/11/13 08:46:41;;;;;;;48.47;27.83;;;;;;;18.27;45.89;100694.28;4976337;28;20249;-75
2021/11/13 08:49:06;;;;;;;53.57;29.17;;;;;;;17.49;47.19;100715.28;4976918;28;20217;-74
2021/11/13 08:51:32;;;;;;;46.93;28.10;;;;;;;17.35;48.25;100722.78;4959700;28;20273;-73
2021/11/13 08:53:57;;;;;;;48.13;25.73;;;;;;;16.22;48.96;100694.19;4975579;28;20198;-74
2021/11/13 08:56:24;;;;;;;51.70;28.60;;;;;;;18.04;46.61;100710.63;4977204;28;20186;-74
2021/11/13 08:58:53;;;;;;;53.80;28.57;;;;;;;20.81;42.80;100711.31;4977399;28;20265;-74
2021/11/13 09:01:20;;;;;;;47.43;27.60;;;;;;;17.11;47.03;100702.28;4959881;28;20534;-75
2021/11/13 09:03:46;;;;;;;50.77;27.07;;;;;;;17.75;47.33;100704.16;4976185;28;20198;-74
2021/11/13 09:06:16;;;;;;;50.97;26.67;;;;;;;18.49;46.70;100721.13;4975955;28;20178;-75
2021/11/13 09:08:43;;;;;;;48.50;26.87;;;;;;;17.97;46.14;100704.03;4975834;28;20224;-74
2021/11/13 09:11:09;;;;;;;50.87;25.70;;;;;;;20.37;42.62;100702.00;4977280;28;20178;-75
2021/11/13 09:13:35;;;;;;;44.40;25.77;;;;;;;21.02;42.12;100721.91;4959826;28;20241;-73
2021/11/13 09:16:02;;;;;;;48.47;25.77;;;;;;;20.73;42.07;100719.31;4976756;28;20189;-74
2021/11/13 09:18:28;;;;;;;46.33;26.33;;;;;;;19.60;44.49;100748.13;4975500;28;20209;-73
2021/11/13 09:20:53;;;;;;;42.33;24.60;;;;;;;19.60;43.75;100721.91;4976930;28;20182;-74
2021/11/13 09:23:19;;;;;;;44.13;25.93;;;;;;;18.34;46.36;100727.88;4977488;28;20181;-75
2021/11/13 09:25:46;;;;;;;46.17;25.37;;;;;;;21.07;41.89;100725.00;4961310;28;20190;-76
2021/11/13 09:28:11;;;;;;;41.97;25.37;;;;;;;20.07;42.29;100719.34;4976024;28;20218;-74
2021/11/13 09:30:38;;;;;;;43.10;24.80;;;;;;;20.15;43.09;100734.88;4975555;28;20184;-74
2021/11/13 09:33:05;;;;;;;43.33;26.70;;;;;;;18.15;45.56;100725.88;4976135;28;20289;-73
2021/11/13 09:35:30;;;;;;;47.23;26.33;;;;;;;17.19;46.55;100717.81;4975791;28;20186;-75
2021/11/13 09:37:57;;;;;;;48.30;26.07;;;;;;;17.43;47.84;100723.84;4974468;28;20538;-74
2021/11/13 09:40:24;;;;;;;42.43;26.23;;;;;;;20.02;44.02;100713.47;4974328;28;20218;-75
2021/11/13 09:42:52;;;;;;;47.13;26.57;;;;;;;19.86;43.78;100708.66;4958626;28;20182;-75
2021/11/13 09:45:18;;;;;;;45.07;25.27;;;;;;;18.24;46.62;100725.13;4959836;28;20178;-73
2021/11/13 09:47:45;;;;;;;43.33;26.17;;;;;;;19.32;44.51;100730.81;4976481;28;20194;-74
2021/11/13 09:50:11;;;;;;;49.33;25.63;;;;;;;21.14;41.90;100730.69;4960705;28;20197;-76
2021/11/13 09:52:43;;;;;;;41.43;24.90;;;;;;;20.07;43.47;100716.63;4976055;28;20237;-75
2021/11/13 09:55:13;;;;;;;53.23;27.00;;;;;;;20.84;42.22;100727.28;4977084;28;20600;-75
2021/11/13 09:57:39;;;;;;;45.33;25.63;;;;;;;19.96;43.09;100711.34;4975299;28;20271;-74
2021/11/13 10:00:13;;;;;;;42.80;24.77;;;;;;;20.86;41.63;100719.00;4957991;28;20193;-74
2021/11/13 10:02:39;;;;;;;46.70;25.67;;;;;;;21.35;41.27;100728.59;4958669;28;20251;-75
2021/11/13 10:05:05;;;;;;;40.43;24.67;;;;;;;20.82;41.47;100710.31;4975274;28;20219;-74
2021/11/13 10:07:35;;;;;;;40.53;24.10;;;;;;;20.75;42.23;100724.59;4959277;28;20205;-74
2021/11/13 10:10:00;;;;;;;47.77;25.07;;;;;;;19.46;43.44;100719.59;4976494;28;20166;-75
2021/11/13 10:12:37;;;;;;;41.30;25.37;;;;;;;21.51;41.49;100739.59;4975179;28;20186;-73
2021/11/13 10:15:26;;;;;;;42.40;24.53;;;;;;;19.50;43.85;100745.38;4974075;28;20280;-75
2021/11/13 10:18:36;;;;;;;38.37;24.80;;;;;;;22.64;39.74;100744.28;4976861;28;20218;-74
2021/11/13 10:21:06;;;;;;;44.73;25.03;;;;;;;20.94;41.04;100721.81;4974780;28;20528;-74
2021/11/13 10:23:36;;;;;;;41.77;25.93;;;;;;;23.04;38.81;100732.81;4976967;28;20221;-75
2021/11/13 10:26:06;;;;;;;41.03;25.77;;;;;;;22.04;40.28;100738.78;4976056;28;20236;-75
2021/11/13 10:28:40;;;;;;;39.50;25.20;;;;;;;20.82;41.91;100740.13;4977048;28;20591;-73
2021/11/13 10:31:16;;;;;;;41.57;24.17;;;;;;;22.20;39.60;100727.19;4962813;28;20207;-75
2021/11/13 10:33:42;;;;;;;46.23;26.10;;;;;;;20.42;42.66;100753.09;4978347;28;20244;-74
2021/11/13 10:36:08;;;;;;;43.90;23.50;;;;;;;22.32;40.04;100749.56;4978109;28;20175;-75
2021/11/13 10:38:34;;;;;;;40.97;24.97;;;;;;;22.65;39.46;100751.44;4962646;28;20195;-73
2021/11/13 10:41:05;;;;;;;46.67;25.03;;;;;;;22.42;39.81;100747.56;4980955;28;20209;-74
2021/11/13 10:43:40;;;;;;;42.10;25.53;;;;;;;23.49;38.55;100747.09;4979910;28;20189;-76
2021/11/13 10:46:09;;;;;;;42.70;24.93;;;;;;;23.69;38.59;100753.94;4979013;28;20167;-74
2021/11/13 10:48:37;;;;;;;37.70;23.60;;;;;;;22.32;40.34;100742.25;4979644;28;20194;-75
2021/11/13 10:51:09;;;;;;;40.40;24.83;;;;;;;22.93;39.10;100718.63;4979304;28;20317;-76
2021/11/13 10:53:36;;;;;;;38.33;23.43;;;;;;;23.94;38.10;100719.41;4979228;28;20194;-74
2021/11/13 10:56:10;;;;;;;39.73;23.70;;;;;;;25.04;36.65;100724.16;4978965;28;20184;-74
2021/11/13 10:58:40;;;;;;;39.63;23.43;;;;;;;24.24;37.24;100709.69;4980279;28;20204;-74
2021/11/13 11:01:11;;;;;;;36.47;23.00;;;;;;;24.33;37.74;100721.44;4978432;28;20212;-75
2021/11/13 11:03:39;;;;;;;42.60;25.37;;;;;;;24.04;37.54;100705.59;4978472;28;20171;-75
2021/11/13 11:06:05;;;;;;;37.20;22.33;;;;;;;24.74;36.45;100703.09;4978662;28;20181;-74